Time;durP1;ratioP1;P1;durP2;ratioP2;P2;SDS_P1;SDS_P2;PMS_P1;PMS_P2;Temp;Humidity;BMP_temperature;BMP_pressure;BME280_temperature;BME280_humidity;BME280_pressure;Samples;Min_cycle;Max_cycle;Signal;HPM_P1;HPM_P2
2022/08/25 20:36:58;;;;;;;3.10;2.40;;;;;;;21.77;61.27;95626.28;5096384;27;20404;-67
2022/08/25 20:39:24;;;;;;;2.55;2.03;;;;;;;21.68;62.96;95610.47;5089925;28;20037;-66
2022/08/25 20:41:49;;;;;;;2.30;2.10;;;;;;;21.68;61.91;95617.72;5084788;28;20024;-67
2022/08/25 20:44:16;;;;;;;3.88;2.47;;;;;;;21.65;62.57;95626.16;5096459;28;20028;-66
2022/08/25 20:46:41;;;;;;;2.80;2.60;;;;;;;21.63;62.53;95621.00;5089831;28;20055;-68
2022/08/25 20:49:07;;;;;;;3.17;2.63;;;;;;;21.56;62.85;95625.56;5096044;28;20439;-67
2022/08/25 20:51:32;;;;;;;4.38;2.40;;;;;;;21.52;62.75;95621.66;5091721;28;20016;-70
2022/08/25 20:53:58;;;;;;;2.58;2.38;;;;;;;21.48;62.56;95626.63;5088147;28;20556;-68
2022/08/25 20:56:23;;;;;;;2.75;2.45;;;;;;;21.43;63.92;95624.56;5082824;28;20039;-68
2022/08/25 20:58:49;;;;;;;2.35;2.20;;;;;;;21.44;63.71;95633.41;5089376;28;20395;-68
2022/08/25 21:01:36;;;;;;;2.55;2.35;;;;;;;21.46;63.52;95626.03;5087090;28;20032;-66
2022/08/25 21:04:04;;;;;;;2.60;2.10;;;;;;;21.45;62.80;95627.88;5092092;28;20506;-68
2022/08/25 21:06:29;;;;;;;2.10;2.00;;;;;;;21.42;63.40;95630.13;5085367;28;20111;-68
2022/08/25 21:08:55;;;;;;;2.40;2.00;;;;;;;21.38;63.32;95643.16;5086903;28;20155;-67
2022/08/25 21:11:23;;;;;;;2.25;1.90;;;;;;;21.39;63.74;95642.09;5093634;28;20040;-69
2022/08/25 21:13:48;;;;;;;2.47;2.28;;;;;;;21.33;64.11;95650.97;5089770;28;20028;-67
2022/08/25 21:16:14;;;;;;;2.10;2.00;;;;;;;21.28;64.51;95650.78;5086306;28;20146;-68
2022/08/25 21:18:39;;;;;;;2.42;2.22;;;;;;;21.21;66.11;95655.34;5087949;28;20109;-66
2022/08/25 21:21:11;;;;;;;2.70;2.25;;;;;;;21.23;64.52;95653.28;5095581;28;20024;-68
2022/08/25 21:23:42;;;;;;;2.33;2.22;;;;;;;21.21;65.85;95658.81;5092942;28;20038;-67
2022/08/25 21:26:16;;;;;;;2.50;2.40;;;;;;;21.18;65.33;95659.25;5087820;28;20043;-68
2022/08/25 21:28:42;;;;;;;2.42;2.28;;;;;;;21.13;66.44;95661.75;5087264;28;20035;-67
2022/08/25 21:31:08;;;;;;;2.95;2.75;;;;;;;21.13;65.81;95659.91;5087204;28;20042;-68
2022/08/25 21:33:34;;;;;;;3.05;2.38;;;;;;;21.09;67.30;95664.00;5089230;28;20509;-67
2022/08/25 21:36:00;;;;;;;2.45;2.28;;;;;;;21.04;66.65;95663.81;5089619;28;20044;-67
2022/08/25 21:38:27;;;;;;;3.65;2.20;;;;;;;21.06;66.11;95660.94;5086993;28;20028;-67
2022/08/25 21:40:53;;;;;;;3.15;2.08;;;;;;;21.06;66.93;95661.75;5076118;28;20028;-67
2022/08/25 21:43:18;;;;;;;3.10;2.40;;;;;;;21.01;66.82;95662.41;5077456;28;20031;-68
2022/08/25 21:45:44;;;;;;;3.72;2.35;;;;;;;21.00;66.73;95663.44;5084810;28;20404;-64
2022/08/25 21:48:09;;;;;;;2.30;2.17;;;;;;;21.06;66.07;95658.25;5070698;28;20024;-66
2022/08/25 21:50:36;;;;;;;6.65;2.17;;;;;;;21.04;67.61;95659.28;5065462;28;20403;-62
2022/08/25 21:53:02;;;;;;;2.40;2.20;;;;;;;20.99;66.73;95651.03;5074944;28;20035;-68
2022/08/25 21:55:28;;;;;;;2.20;2.10;;;;;;;20.92;67.73;95652.91;5075223;28;20032;-67
2022/08/25 21:57:53;;;;;;;3.72;2.33;;;;;;;20.89;67.54;95654.19;5079792;28;20390;-66
2022/08/25 22:00:21;;;;;;;2.35;2.25;;;;;;;20.88;67.77;95655.19;5078235;28;20028;-67
2022/08/25 22:02:47;;;;;;;2.20;2.00;;;;;;;20.88;67.70;95652.50;5070812;28;20041;-66
2022/08/25 22:05:12;;;;;;;2.67;2.47;;;;;;;20.82;67.90;95656.03;5071677;28;20020;-66
2022/08/25 22:07:38;;;;;;;2.05;1.88;;;;;;;20.78;68.10;95651.25;5074276;28;20028;-66
2022/08/25 22:10:04;;;;;;;2.75;2.00;;;;;;;20.81;67.08;95657.06;5069692;28;20494;-66
2022/08/25 22:12:29;;;;;;;3.33;2.08;;;;;;;20.82;67.30;95657.88;5067208;28;20111;-67
2022/08/25 22:14:55;;;;;;;3.50;2.47;;;;;;;20.78;67.39;95653.94;5073757;28;20119;-68
2022/08/25 22:17:20;;;;;;;2.28;2.13;;;;;;;20.66;68.08;95659.06;5072742;28;20408;-67
2022/08/25 22:19:46;;;;;;;2.45;2.20;;;;;;;20.61;67.84;95654.38;5079071;28;20028;-66
2022/08/25 22:22:12;;;;;;;2.20;2.10;;;;;;;20.61;68.72;95662.41;5083513;28;20112;-66
2022/08/25 22:24:37;;;;;;;2.30;2.20;;;;;;;20.58;68.57;95655.59;5078148;28;20130;-66
2022/08/25 22:27:03;;;;;;;5.80;2.40;;;;;;;20.59;68.77;95664.47;5076900;28;20583;-66
2022/08/25 22:29:28;;;;;;;2.30;2.17;;;;;;;20.55;68.73;95664.03;5071494;28;20571;-67
2022/08/25 22:31:56;;;;;;;3.08;2.20;;;;;;;20.53;68.68;95660.75;5070887;28;20025;-66
2022/08/25 22:34:21;;;;;;;3.25;2.50;;;;;;;20.49;69.01;95659.50;5064038;28;20449;-67
2022/08/25 22:36:47;;;;;;;3.72;2.30;;;;;;;20.49;68.65;95656.00;5071787;28;20052;-67
2022/08/25 22:39:12;;;;;;;3.17;2.20;;;;;;;20.51;68.18;95656.63;5078220;28;20016;-67
2022/08/25 22:41:38;;;;;;;2.33;2.22;;;;;;;20.56;67.77;95657.66;5075536;28;20032;-67
2022/08/25 22:44:05;;;;;;;5.18;2.70;;;;;;;20.57;68.06;95650.47;5075503;28;20112;-66
2022/08/25 22:46:31;;;;;;;4.05;2.10;;;;;;;20.52;69.00;95647.56;5069078;28;20036;-66
2022/08/25 22:48:57;;;;;;;5.60;2.25;;;;;;;20.54;68.55;95650.84;5075034;28;20043;-66
2022/08/25 22:51:25;;;;;;;2.67;2.20;;;;;;;20.58;68.36;95650.25;5077309;28;20024;-67
2022/08/25 22:53:51;;;;;;;3.42;2.40;;;;;;;20.57;68.51;95640.59;5074326;28;20046;-67
2022/08/25 22:56:19;;;;;;;2.90;2.47;;;;;;;20.50;69.54;95636.25;5071050;28;20036;-66
2022/08/25 22:58:46;;;;;;;2.67;2.47;;;;;;;20.40;70.03;95629.47;5068110;28;20041;-67
2022/08/25 23:01:15;;;;;;;3.40;2.70;;;;;;;20.37;70.25;95640.59;5071752;28;20037;-67
2022/08/25 23:03:41;;;;;;;3.80;2.38;;;;;;;20.31;70.69;95636.88;5074609;28;20166;-67
2022/08/25 23:06:18;;;;;;;2.47;2.22;;;;;;;20.32;70.79;95643.03;5070381;28;20530;-67
2022/08/25 23:08:44;;;;;;;2.45;2.25;;;;;;;20.30;70.87;95640.59;5070329;28;20032;-67
2022/08/25 23:11:11;;;;;;;2.67;2.47;;;;;;;20.26;71.26;95643.84;5079329;28;20028;-67
2022/08/25 23:13:38;;;;;;;2.50;2.40;;;;;;;20.18;71.60;95632.34;5068030;28;20096;-67
2022/08/25 23:16:05;;;;;;;3.60;2.60;;;;;;;20.14;71.65;95639.13;5068512;28;20048;-65
2022/08/25 23:18:31;;;;;;;4.68;2.60;;;;;;;20.08;71.13;95633.78;5065650;28;20025;-65
2022/08/25 23:23:42;;;;;;;3.55;2.42;;;;;;;20.08;70.99;95641.78;5067542;28;20119;-65
2022/08/25 23:26:08;;;;;;;3.60;2.50;;;;;;;20.08;71.63;95634.56;5084270;28;20398;-65
2022/08/25 23:28:33;;;;;;;2.30;2.10;;;;;;;20.04;71.89;95630.66;5070486;28;20047;-65
2022/08/25 23:30:59;;;;;;;2.65;2.50;;;;;;;20.00;72.55;95624.91;5068300;28;20484;-65
2022/08/25 23:33:25;;;;;;;3.30;2.63;;;;;;;19.93;72.82;95624.06;5066844;28;20506;-65
2022/08/25 23:36:01;;;;;;;3.00;2.30;;;;;;;19.95;71.95;95622.03;5069649;28;20163;-65
2022/08/25 23:38:27;;;;;;;2.58;2.38;;;;;;;19.98;72.41;95620.81;5071601;28;20032;-65
2022/08/25 23:40:52;;;;;;;2.70;2.47;;;;;;;19.95;73.33;95630.03;5075480;28;20034;-65
2022/08/25 23:43:18;;;;;;;4.15;2.45;;;;;;;19.95;72.52;95622.03;5066877;28;20028;-67
2022/08/25 23:45:44;;;;;;;3.25;2.53;;;;;;;19.95;72.24;95611.34;5070840;28;20028;-65
2022/08/25 23:48:10;;;;;;;2.55;2.35;;;;;;;20.00;71.83;95614.22;5072473;28;20384;-65
2022/08/25 23:50:46;;;;;;;3.63;2.38;;;;;;;20.02;72.28;95611.34;5065087;28;20510;-65
2022/08/25 23:53:14;;;;;;;4.35;2.40;;;;;;;20.00;72.11;95608.06;5070294;28;20470;-65
2022/08/25 23:55:40;;;;;;;2.63;2.42;;;;;;;19.96;72.29;95612.97;5075351;28;20024;-64
2022/08/25 23:58:06;;;;;;;2.40;2.20;;;;;;;19.95;71.77;95610.53;5066802;28;20043;-64
